sensor_id;sensor_type;location;lat;lon;timestamp;temperature;humidity
30186;DHT22;31152;49.190;8.122;2022-10-24T00:01:13;17.10;99.90
30186;DHT22;31152;49.190;8.122;2022-10-24T00:03:40;17.00;99.90
30186;DHT22;31152;49.190;8.122;2022-10-24T00:06:08;17.00;99.90
30186;DHT22;31152;49.190;8.122;2022-10-24T00:08:36;17.00;99.90
30186;DHT22;31152;49.190;8.122;2022-10-24T00:11:11;16.90;99.90
30186;DHT22;31152;49.190;8.122;2022-10-24T00:13:38;16.90;99.90
30186;DHT22;31152;49.190;8.122;2022-10-24T00:16:08;16.90;99.90
30186;DHT22;31152;49.190;8.122;2022-10-24T00:18:35;16.90;99.90
30186;DHT22;31152;49.190;8.122;2022-10-24T00:21:02;16.90;99.90
30186;DHT22;31152;49.190;8.122;2022-10-24T00:23:29;16.90;99.90
30186;DHT22;31152;49.190;8.122;2022-10-24T00:25:56;16.90;99.90
30186;DHT22;31152;49.190;8.122;2022-10-24T00:28:27;16.80;99.90
30186;DHT22;31152;49.190;8.122;2022-10-24T00:30:54;16.80;99.90
30186;DHT22;31152;49.190;8.122;2022-10-24T00:33:21;16.80;99.90
30186;DHT22;31152;49.190;8.122;2022-10-24T00:35:47;16.70;99.90
30186;DHT22;31152;49.190;8.122;2022-10-24T00:38:14;16.70;99.90
30186;DHT22;31152;49.190;8.122;2022-10-24T00:40:41;16.70;99.90
30186;DHT22;31152;49.190;8.122;2022-10-24T00:43:19;16.70;99.90
30186;DHT22;31152;49.190;8.122;2022-10-24T00:45:51;16.60;99.90
30186;DHT22;31152;49.190;8.122;2022-10-24T00:48:29;16.60;99.90
30186;DHT22;31152;49.190;8.122;2022-10-24T00:51:01;16.60;99.90
30186;DHT22;31152;49.190;8.122;2022-10-24T00:53:32;16.40;99.90
30186;DHT22;31152;49.190;8.122;2022-10-24T00:56:02;16.40;99.90
30186;DHT22;31152;49.190;8.122;2022-10-24T00:58:32;16.30;99.90
30186;DHT22;31152;49.190;8.122;2022-10-24T01:01:00;16.30;99.90
30186;DHT22;31152;49.190;8.122;2022-10-24T01:03:27;16.30;99.90
30186;DHT22;31152;49.190;8.122;2022-10-24T01:08:44;16.20;99.90
30186;DHT22;31152;49.190;8.122;2022-10-24T01:14:27;16.20;99.90
30186;DHT22;31152;49.190;8.122;2022-10-24T01:17:05;16.20;99.90
30186;DHT22;31152;49.190;8.122;2022-10-24T01:23:15;16.00;99.90
30186;DHT22;31152;49.190;8.122;2022-10-24T01:28:49;15.80;99.90
30186;DHT22;31152;49.190;8.122;2022-10-24T01:31:34;15.70;99.90
30186;DHT22;31152;49.190;8.122;2022-10-24T01:34:14;15.50;99.90
30186;DHT22;31152;49.190;8.122;2022-10-24T01:36:50;15.50;99.90
30186;DHT22;31152;49.190;8.122;2022-10-24T01:39:27;15.40;99.90
30186;DHT22;31152;49.190;8.122;2022-10-24T01:41:56;15.40;99.90
30186;DHT22;31152;49.190;8.122;2022-10-24T01:44:29;15.40;99.90
30186;DHT22;31152;49.190;8.122;2022-10-24T01:47:08;15.40;99.90
30186;DHT22;31152;49.190;8.122;2022-10-24T01:49:38;15.40;99.90
30186;DHT22;31152;49.190;8.122;2022-10-24T01:52:10;15.40;99.90
30186;DHT22;31152;49.190;8.122;2022-10-24T01:54:40;15.40;99.90
30186;DHT22;31152;49.190;8.122;2022-10-24T01:57:12;15.40;99.90
30186;DHT22;31152;49.190;8.122;2022-10-24T01:59:46;15.40;99.90
30186;DHT22;31152;49.190;8.122;2022-10-24T02:02:21;15.40;99.90
30186;DHT22;31152;49.190;8.122;2022-10-24T02:04:55;15.30;99.90
30186;DHT22;31152;49.190;8.122;2022-10-24T02:07:24;15.20;99.90
30186;DHT22;31152;49.190;8.122;2022-10-24T02:09:58;15.20;99.90
30186;DHT22;31152;49.190;8.122;2022-10-24T02:12:29;15.10;99.90
30186;DHT22;31152;49.190;8.122;2022-10-24T02:15:10;15.10;99.90
30186;DHT22;31152;49.190;8.122;2022-10-24T02:17:38;15.10;99.90
30186;DHT22;31152;49.190;8.122;2022-10-24T02:20:06;15.00;99.90
30186;DHT22;31152;49.190;8.122;2022-10-24T02:22:45;15.00;99.90
30186;DHT22;31152;49.190;8.122;2022-10-24T02:25:24;14.90;99.90
30186;DHT22;31152;49.190;8.122;2022-10-24T02:28:01;14.90;99.90
30186;DHT22;31152;49.190;8.122;2022-10-24T02:30:34;14.90;99.90
30186;DHT22;31152;49.190;8.122;2022-10-24T02:33:02;14.90;99.90
30186;DHT22;31152;49.190;8.122;2022-10-24T02:35:32;14.80;99.90
30186;DHT22;31152;49.190;8.122;2022-10-24T02:38:08;14.70;99.90
30186;DHT22;31152;49.190;8.122;2022-10-24T02:40:37;14.80;99.90
30186;DHT22;31152;49.190;8.122;2022-10-24T02:43:04;14.70;99.90
30186;DHT22;31152;49.190;8.122;2022-10-24T02:45:33;14.70;99.90
30186;DHT22;31152;49.190;8.122;2022-10-24T02:48:07;14.60;99.90
30186;DHT22;31152;49.190;8.122;2022-10-24T02:50:36;14.60;99.90
30186;DHT22;31152;49.190;8.122;2022-10-24T02:53:08;14.60;99.90
30186;DHT22;31152;49.190;8.122;2022-10-24T02:55:35;14.60;99.90
30186;DHT22;31152;49.190;8.122;2022-10-24T02:58:02;14.60;99.90
30186;DHT22;31152;49.190;8.122;2022-10-24T03:00:29;14.50;99.90
30186;DHT22;31152;49.190;8.122;2022-10-24T03:02:55;14.50;99.90
30186;DHT22;31152;49.190;8.122;2022-10-24T03:05:24;14.60;99.90
30186;DHT22;31152;49.190;8.122;2022-10-24T03:07:51;14.50;99.90
30186;DHT22;31152;49.190;8.122;2022-10-24T03:10:21;14.40;99.90
30186;DHT22;31152;49.190;8.122;2022-10-24T03:12:47;14.40;99.90
30186;DHT22;31152;49.190;8.122;2022-10-24T03:15:14;14.40;99.90
30186;DHT22;31152;49.190;8.122;2022-10-24T03:17:43;14.40;99.90
30186;DHT22;31152;49.190;8.122;2022-10-24T03:20:10;14.40;99.90
30186;DHT22;31152;49.190;8.122;2022-10-24T03:22:37;14.40;99.90
30186;DHT22;31152;49.190;8.122;2022-10-24T03:25:04;14.30;99.90
30186;DHT22;31152;49.190;8.122;2022-10-24T03:27:33;14.30;99.90
30186;DHT22;31152;49.190;8.122;2022-10-24T03:30:00;14.30;99.90
30186;DHT22;31152;49.190;8.122;2022-10-24T03:32:27;14.30;99.90
30186;DHT22;31152;49.190;8.122;2022-10-24T03:34:54;14.20;99.90
30186;DHT22;31152;49.190;8.122;2022-10-24T03:37:21;14.20;99.90
30186;DHT22;31152;49.190;8.122;2022-10-24T03:39:48;14.20;99.90
30186;DHT22;31152;49.190;8.122;2022-10-24T03:42:14;14.10;99.90
30186;DHT22;31152;49.190;8.122;2022-10-24T03:44:41;14.10;99.90
30186;DHT22;31152;49.190;8.122;2022-10-24T03:47:08;14.10;99.90
30186;DHT22;31152;49.190;8.122;2022-10-24T03:49:35;14.10;99.90
30186;DHT22;31152;49.190;8.122;2022-10-24T03:52:02;14.10;99.90
30186;DHT22;31152;49.190;8.122;2022-10-24T03:54:29;14.10;99.90
30186;DHT22;31152;49.190;8.122;2022-10-24T03:56:56;14.10;99.90
30186;DHT22;31152;49.190;8.122;2022-10-24T03:59:23;14.10;99.90
30186;DHT22;31152;49.190;8.122;2022-10-24T04:01:52;14.10;99.90
30186;DHT22;31152;49.190;8.122;2022-10-24T04:04:19;14.00;99.90
30186;DHT22;31152;49.190;8.122;2022-10-24T04:06:45;14.10;99.90
30186;DHT22;31152;49.190;8.122;2022-10-24T04:09:12;14.00;99.90
30186;DHT22;31152;49.190;8.122;2022-10-24T04:11:39;14.00;99.90
30186;DHT22;31152;49.190;8.122;2022-10-24T04:14:05;13.90;99.90
30186;DHT22;31152;49.190;8.122;2022-10-24T04:16:35;13.90;99.90
30186;DHT22;31152;49.190;8.122;2022-10-24T04:19:02;14.00;99.90
30186;DHT22;31152;49.190;8.122;2022-10-24T04:21:28;13.90;99.90
30186;DHT22;31152;49.190;8.122;2022-10-24T04:23:55;14.00;99.90
30186;DHT22;31152;49.190;8.122;2022-10-24T04:26:22;13.90;99.90
30186;DHT22;31152;49.190;8.122;2022-10-24T04:28:49;13.90;99.90
30186;DHT22;31152;49.190;8.122;2022-10-24T04:31:18;13.90;99.90
30186;DHT22;31152;49.190;8.122;2022-10-24T04:33:49;13.90;99.90
30186;DHT22;31152;49.190;8.122;2022-10-24T04:36:15;14.00;99.90
30186;DHT22;31152;49.190;8.122;2022-10-24T04:38:46;13.90;99.90
30186;DHT22;31152;49.190;8.122;2022-10-24T04:41:13;14.00;99.90
30186;DHT22;31152;49.190;8.122;2022-10-24T04:43:40;13.90;99.90
30186;DHT22;31152;49.190;8.122;2022-10-24T04:46:06;13.90;99.90
30186;DHT22;31152;49.190;8.122;2022-10-24T04:48:35;13.80;99.90
30186;DHT22;31152;49.190;8.122;2022-10-24T04:51:02;13.80;99.90
30186;DHT22;31152;49.190;8.122;2022-10-24T04:53:29;13.80;99.90
30186;DHT22;31152;49.190;8.122;2022-10-24T04:55:56;13.80;99.90
30186;DHT22;31152;49.190;8.122;2022-10-24T04:58:25;13.80;99.90
30186;DHT22;31152;49.190;8.122;2022-10-24T05:00:54;13.70;99.90
30186;DHT22;31152;49.190;8.122;2022-10-24T05:03:21;13.70;99.90
30186;DHT22;31152;49.190;8.122;2022-10-24T05:05:48;13.70;99.90
30186;DHT22;31152;49.190;8.122;2022-10-24T05:08:16;13.70;99.90
30186;DHT22;31152;49.190;8.122;2022-10-24T05:10:43;13.70;99.90
30186;DHT22;31152;49.190;8.122;2022-10-24T05:13:14;13.80;99.90
30186;DHT22;31152;49.190;8.122;2022-10-24T05:15:43;13.90;99.90
30186;DHT22;31152;49.190;8.122;2022-10-24T05:18:10;13.90;99.90
30186;DHT22;31152;49.190;8.122;2022-10-24T05:20:37;14.10;99.90
30186;DHT22;31152;49.190;8.122;2022-10-24T05:23:11;14.20;99.90
30186;DHT22;31152;49.190;8.122;2022-10-24T05:25:38;14.40;99.90
30186;DHT22;31152;49.190;8.122;2022-10-24T05:28:04;14.60;99.90
30186;DHT22;31152;49.190;8.122;2022-10-24T05:30:31;14.90;99.90
30186;DHT22;31152;49.190;8.122;2022-10-24T05:32:58;15.50;99.90
30186;DHT22;31152;49.190;8.122;2022-10-24T05:35:25;16.10;99.90
30186;DHT22;31152;49.190;8.122;2022-10-24T05:37:51;16.60;99.90
30186;DHT22;31152;49.190;8.122;2022-10-24T05:40:18;17.00;99.90
30186;DHT22;31152;49.190;8.122;2022-10-24T05:42:47;17.20;99.90
30186;DHT22;31152;49.190;8.122;2022-10-24T05:45:15;17.30;99.90
30186;DHT22;31152;49.190;8.122;2022-10-24T05:47:41;17.50;99.90
30186;DHT22;31152;49.190;8.122;2022-10-24T05:50:12;17.50;99.90
30186;DHT22;31152;49.190;8.122;2022-10-24T05:52:39;17.50;99.90
30186;DHT22;31152;49.190;8.122;2022-10-24T05:55:12;17.50;99.90
30186;DHT22;31152;49.190;8.122;2022-10-24T05:57:43;17.40;99.90
30186;DHT22;31152;49.190;8.122;2022-10-24T06:00:13;17.40;99.90
30186;DHT22;31152;49.190;8.122;2022-10-24T06:02:40;17.40;99.90
30186;DHT22;31152;49.190;8.122;2022-10-24T06:05:08;17.30;99.90
30186;DHT22;31152;49.190;8.122;2022-10-24T06:07:36;17.20;99.90
30186;DHT22;31152;49.190;8.122;2022-10-24T06:10:04;17.20;99.90
30186;DHT22;31152;49.190;8.122;2022-10-24T06:12:31;17.00;99.90
30186;DHT22;31152;49.190;8.122;2022-10-24T06:14:59;16.90;99.90
30186;DHT22;31152;49.190;8.122;2022-10-24T06:17:26;16.80;99.90
30186;DHT22;31152;49.190;8.122;2022-10-24T06:19:52;16.70;99.90
30186;DHT22;31152;49.190;8.122;2022-10-24T06:22:19;16.70;99.90
30186;DHT22;31152;49.190;8.122;2022-10-24T06:24:50;16.50;99.90
30186;DHT22;31152;49.190;8.122;2022-10-24T06:27:21;16.40;99.90
30186;DHT22;31152;49.190;8.122;2022-10-24T06:29:48;16.40;99.90
30186;DHT22;31152;49.190;8.122;2022-10-24T06:32:15;16.30;99.90
30186;DHT22;31152;49.190;8.122;2022-10-24T06:34:41;16.30;99.90
30186;DHT22;31152;49.190;8.122;2022-10-24T06:37:08;16.20;99.90
30186;DHT22;31152;49.190;8.122;2022-10-24T06:39:35;16.20;99.90
30186;DHT22;31152;49.190;8.122;2022-10-24T06:42:01;16.20;99.90
30186;DHT22;31152;49.190;8.122;2022-10-24T06:44:28;16.20;99.90
30186;DHT22;31152;49.190;8.122;2022-10-24T06:46:55;16.20;99.90
30186;DHT22;31152;49.190;8.122;2022-10-24T06:49:21;16.20;99.90
30186;DHT22;31152;49.190;8.122;2022-10-24T06:51:48;16.10;99.90
30186;DHT22;31152;49.190;8.122;2022-10-24T06:54:15;16.10;99.90
30186;DHT22;31152;49.190;8.122;2022-10-24T06:56:42;16.10;99.90
30186;DHT22;31152;49.190;8.122;2022-10-24T06:59:10;16.10;99.90
30186;DHT22;31152;49.190;8.122;2022-10-24T07:01:39;16.10;99.90
30186;DHT22;31152;49.190;8.122;2022-10-24T07:04:06;16.10;99.90
30186;DHT22;31152;49.190;8.122;2022-10-24T07:06:33;16.10;99.90
30186;DHT22;31152;49.190;8.122;2022-10-24T07:09:04;16.10;99.90
30186;DHT22;31152;49.190;8.122;2022-10-24T07:11:32;16.10;99.90
30186;DHT22;31152;49.190;8.122;2022-10-24T07:13:59;16.10;99.90
30186;DHT22;31152;49.190;8.122;2022-10-24T07:16:29;16.10;99.90
30186;DHT22;31152;49.190;8.122;2022-10-24T07:18:56;16.10;99.90
30186;DHT22;31152;49.190;8.122;2022-10-24T07:21:26;16.10;99.90
30186;DHT22;31152;49.190;8.122;2022-10-24T07:23:56;16.10;99.90
30186;DHT22;31152;49.190;8.122;2022-10-24T07:26:25;16.10;99.90
30186;DHT22;31152;49.190;8.122;2022-10-24T07:28:57;16.10;99.90
30186;DHT22;31152;49.190;8.122;2022-10-24T07:31:33;16.10;99.90
30186;DHT22;31152;49.190;8.122;2022-10-24T07:34:05;16.10;99.90
30186;DHT22;31152;49.190;8.122;2022-10-24T07:36:32;16.10;99.90
30186;DHT22;31152;49.190;8.122;2022-10-24T07:38:59;16.10;99.90
30186;DHT22;31152;49.190;8.122;2022-10-24T07:41:28;16.20;99.90
30186;DHT22;31152;49.190;8.122;2022-10-24T07:43:56;16.20;99.90
30186;DHT22;31152;49.190;8.122;2022-10-24T07:46:24;16.20;99.90
30186;DHT22;31152;49.190;8.122;2022-10-24T07:48:52;16.20;99.90
30186;DHT22;31152;49.190;8.122;2022-10-24T07:51:21;16.20;99.90
30186;DHT22;31152;49.190;8.122;2022-10-24T07:53:48;16.20;99.90
30186;DHT22;31152;49.190;8.122;2022-10-24T07:56:16;16.30;99.90
30186;DHT22;31152;49.190;8.122;2022-10-24T07:58:44;16.30;99.90
30186;DHT22;31152;49.190;8.122;2022-10-24T08:01:21;16.30;99.90
30186;DHT22;31152;49.190;8.122;2022-10-24T08:03:49;16.40;99.90
30186;DHT22;31152;49.190;8.122;2022-10-24T08:06:20;16.40;99.90
30186;DHT22;31152;49.190;8.122;2022-10-24T08:08:47;16.40;99.90
30186;DHT22;31152;49.190;8.122;2022-10-24T08:11:20;16.40;99.90
30186;DHT22;31152;49.190;8.122;2022-10-24T08:13:49;16.40;99.90
30186;DHT22;31152;49.190;8.122;2022-10-24T08:16:18;16.40;99.90
30186;DHT22;31152;49.190;8.122;2022-10-24T08:18:47;16.50;99.90
30186;DHT22;31152;49.190;8.122;2022-10-24T08:21:16;16.50;99.90
30186;DHT22;31152;49.190;8.122;2022-10-24T08:23:46;16.50;99.90
30186;DHT22;31152;49.190;8.122;2022-10-24T08:26:16;16.50;99.90
30186;DHT22;31152;49.190;8.122;2022-10-24T08:28:44;16.50;99.90
30186;DHT22;31152;49.190;8.122;2022-10-24T08:31:18;16.50;99.90
30186;DHT22;31152;49.190;8.122;2022-10-24T08:33:46;16.50;99.90
30186;DHT22;31152;49.190;8.122;2022-10-24T08:36:23;16.60;99.90
30186;DHT22;31152;49.190;8.122;2022-10-24T08:38:50;16.60;99.90
30186;DHT22;31152;49.190;8.122;2022-10-24T08:43:51;16.70;99.90
30186;DHT22;31152;49.190;8.122;2022-10-24T08:49:25;16.80;99.90
30186;DHT22;31152;49.190;8.122;2022-10-24T08:52:00;16.90;99.90
30186;DHT22;31152;49.190;8.122;2022-10-24T08:54:33;17.00;99.90
30186;DHT22;31152;49.190;8.122;2022-10-24T08:57:03;17.10;99.90
30186;DHT22;31152;49.190;8.122;2022-10-24T08:59:33;17.30;99.90
30186;DHT22;31152;49.190;8.122;2022-10-24T09:04:46;17.70;99.90
30186;DHT22;31152;49.190;8.122;2022-10-24T09:07:19;17.70;99.90
30186;DHT22;31152;49.190;8.122;2022-10-24T09:09:49;17.80;99.90
30186;DHT22;31152;49.190;8.122;2022-10-24T09:12:19;17.80;99.90
30186;DHT22;31152;49.190;8.122;2022-10-24T09:14:54;18.00;99.90
30186;DHT22;31152;49.190;8.122;2022-10-24T09:17:31;18.00;99.90
30186;DHT22;31152;49.190;8.122;2022-10-24T09:20:11;18.10;99.90
30186;DHT22;31152;49.190;8.122;2022-10-24T09:22:45;18.20;99.90
30186;DHT22;31152;49.190;8.122;2022-10-24T09:25:15;18.40;99.90
30186;DHT22;31152;49.190;8.122;2022-10-24T09:27:43;18.40;99.90
30186;DHT22;31152;49.190;8.122;2022-10-24T09:30:19;18.30;99.90
30186;DHT22;31152;49.190;8.122;2022-10-24T09:32:47;18.30;99.90
30186;DHT22;31152;49.190;8.122;2022-10-24T09:35:25;18.30;99.90
30186;DHT22;31152;49.190;8.122;2022-10-24T09:37:57;18.30;99.90
30186;DHT22;31152;49.190;8.122;2022-10-24T09:40:30;18.30;99.90
30186;DHT22;31152;49.190;8.122;2022-10-24T09:43:22;18.30;99.90
30186;DHT22;31152;49.190;8.122;2022-10-24T09:46:04;18.30;99.90
30186;DHT22;31152;49.190;8.122;2022-10-24T09:51:32;18.50;99.90
30186;DHT22;31152;49.190;8.122;2022-10-24T09:54:22;18.70;99.90
30186;DHT22;31152;49.190;8.122;2022-10-24T09:56:55;18.90;99.90
30186;DHT22;31152;49.190;8.122;2022-10-24T09:59:40;19.00;99.90
30186;DHT22;31152;49.190;8.122;2022-10-24T10:04:48;18.80;99.90
30186;DHT22;31152;49.190;8.122;2022-10-24T10:07:25;18.70;99.90
30186;DHT22;31152;49.190;8.122;2022-10-24T10:09:55;18.90;99.90
30186;DHT22;31152;49.190;8.122;2022-10-24T10:12:30;18.90;99.90
30186;DHT22;31152;49.190;8.122;2022-10-24T10:15:25;19.00;99.90
30186;DHT22;31152;49.190;8.122;2022-10-24T10:17:51;18.90;99.90
30186;DHT22;31152;49.190;8.122;2022-10-24T10:20:39;19.00;99.90
30186;DHT22;31152;49.190;8.122;2022-10-24T10:25:46;19.20;99.90
30186;DHT22;31152;49.190;8.122;2022-10-24T10:28:21;19.00;99.90
30186;DHT22;31152;49.190;8.122;2022-10-24T10:30:54;19.10;99.90
30186;DHT22;31152;49.190;8.122;2022-10-24T10:33:31;19.20;99.90
30186;DHT22;31152;49.190;8.122;2022-10-24T10:36:15;19.50;99.90
30186;DHT22;31152;49.190;8.122;2022-10-24T10:38:51;19.70;99.90
30186;DHT22;31152;49.190;8.122;2022-10-24T10:41:31;19.90;99.90
30186;DHT22;31152;49.190;8.122;2022-10-24T10:46:58;20.10;99.90
30186;DHT22;31152;49.190;8.122;2022-10-24T10:49:30;20.10;99.90
30186;DHT22;31152;49.190;8.122;2022-10-24T10:57:19;19.90;99.90
30186;DHT22;31152;49.190;8.122;2022-10-24T11:00:18;20.40;99.90
30186;DHT22;31152;49.190;8.122;2022-10-24T11:03:09;20.90;99.90
30186;DHT22;31152;49.190;8.122;2022-10-24T11:06:00;21.20;99.90
30186;DHT22;31152;49.190;8.122;2022-10-24T11:11:26;21.20;99.90
30186;DHT22;31152;49.190;8.122;2022-10-24T11:14:14;21.40;99.90
30186;DHT22;31152;49.190;8.122;2022-10-24T11:16:42;21.80;99.90
30186;DHT22;31152;49.190;8.122;2022-10-24T11:22:07;22.00;99.90
30186;DHT22;31152;49.190;8.122;2022-10-24T11:24:43;22.20;99.90
30186;DHT22;31152;49.190;8.122;2022-10-24T11:27:18;22.30;99.90
30186;DHT22;31152;49.190;8.122;2022-10-24T11:30:12;22.00;99.90
30186;DHT22;31152;49.190;8.122;2022-10-24T11:32:58;22.10;99.90
30186;DHT22;31152;49.190;8.122;2022-10-24T11:40:36;22.40;99.90
30186;DHT22;31152;49.190;8.122;2022-10-24T11:43:25;22.60;99.90
30186;DHT22;31152;49.190;8.122;2022-10-24T11:48:57;23.00;99.90
30186;DHT22;31152;49.190;8.122;2022-10-24T11:51:36;23.30;99.90
30186;DHT22;31152;49.190;8.122;2022-10-24T11:54:12;23.40;99.90
30186;DHT22;31152;49.190;8.122;2022-10-24T11:56:46;23.50;99.90
30186;DHT22;31152;49.190;8.122;2022-10-24T11:59:17;23.50;99.90
30186;DHT22;31152;49.190;8.122;2022-10-24T12:07:41;22.80;99.90
30186;DHT22;31152;49.190;8.122;2022-10-24T12:12:41;22.10;99.90
30186;DHT22;31152;49.190;8.122;2022-10-24T12:18:22;22.20;99.90
30186;DHT22;31152;49.190;8.122;2022-10-24T12:20:53;22.80;99.90
30186;DHT22;31152;49.190;8.122;2022-10-24T12:23:23;23.50;99.90
30186;DHT22;31152;49.190;8.122;2022-10-24T12:26:24;24.00;99.90
30186;DHT22;31152;49.190;8.122;2022-10-24T12:28:57;23.90;99.90
30186;DHT22;31152;49.190;8.122;2022-10-24T12:31:32;23.20;99.90
30186;DHT22;31152;49.190;8.122;2022-10-24T12:37:04;22.10;99.90
30186;DHT22;31152;49.190;8.122;2022-10-24T12:39:37;21.60;99.90
30186;DHT22;31152;49.190;8.122;2022-10-24T12:44:42;21.20;99.90
30186;DHT22;31152;49.190;8.122;2022-10-24T12:53:02;21.40;99.90
30186;DHT22;31152;49.190;8.122;2022-10-24T12:58:28;22.90;99.90
30186;DHT22;31152;49.190;8.122;2022-10-24T13:11:54;22.80;99.90
30186;DHT22;31152;49.190;8.122;2022-10-24T13:17:31;22.30;99.90
30186;DHT22;31152;49.190;8.122;2022-10-24T13:22:35;21.90;99.90
30186;DHT22;31152;49.190;8.122;2022-10-24T13:25:29;22.00;99.90
30186;DHT22;31152;49.190;8.122;2022-10-24T13:43:59;22.00;99.90
30186;DHT22;31152;49.190;8.122;2022-10-24T13:52:31;21.00;99.90
30186;DHT22;31152;49.190;8.122;2022-10-24T13:55:13;20.80;99.90
30186;DHT22;31152;49.190;8.122;2022-10-24T14:00:35;20.30;99.90
30186;DHT22;31152;49.190;8.122;2022-10-24T14:03:14;20.30;99.90
30186;DHT22;31152;49.190;8.122;2022-10-24T14:05:47;20.20;99.90
30186;DHT22;31152;49.190;8.122;2022-10-24T14:10:59;20.10;99.90
30186;DHT22;31152;49.190;8.122;2022-10-24T14:13:31;20.10;99.90
30186;DHT22;31152;49.190;8.122;2022-10-24T14:16:02;20.10;99.90
30186;DHT22;31152;49.190;8.122;2022-10-24T14:18:29;20.00;99.90
30186;DHT22;31152;49.190;8.122;2022-10-24T14:20:58;20.00;99.90
30186;DHT22;31152;49.190;8.122;2022-10-24T14:23:36;19.90;99.90
30186;DHT22;31152;49.190;8.122;2022-10-24T14:26:08;19.90;99.90
30186;DHT22;31152;49.190;8.122;2022-10-24T14:28:49;19.80;99.90
30186;DHT22;31152;49.190;8.122;2022-10-24T14:31:33;19.80;99.90
30186;DHT22;31152;49.190;8.122;2022-10-24T14:34:02;19.70;99.90
30186;DHT22;31152;49.190;8.122;2022-10-24T14:36:33;19.80;99.90
30186;DHT22;31152;49.190;8.122;2022-10-24T14:39:04;20.00;99.90
30186;DHT22;31152;49.190;8.122;2022-10-24T14:41:41;20.20;99.90
30186;DHT22;31152;49.190;8.122;2022-10-24T14:44:12;20.40;99.90
30186;DHT22;31152;49.190;8.122;2022-10-24T14:46:42;20.40;99.90
30186;DHT22;31152;49.190;8.122;2022-10-24T14:54:57;19.90;99.90
30186;DHT22;31152;49.190;8.122;2022-10-24T14:57:26;19.70;99.90
30186;DHT22;31152;49.190;8.122;2022-10-24T14:59:55;19.70;99.90
30186;DHT22;31152;49.190;8.122;2022-10-24T15:02:28;19.60;99.90
30186;DHT22;31152;49.190;8.122;2022-10-24T15:05:28;19.50;99.90
30186;DHT22;31152;49.190;8.122;2022-10-24T15:08:17;19.50;99.90
30186;DHT22;31152;49.190;8.122;2022-10-24T15:10:49;19.40;99.90
30186;DHT22;31152;49.190;8.122;2022-10-24T15:13:31;19.30;99.90
30186;DHT22;31152;49.190;8.122;2022-10-24T15:16:00;19.30;99.90
30186;DHT22;31152;49.190;8.122;2022-10-24T15:21:06;19.20;99.90
30186;DHT22;31152;49.190;8.122;2022-10-24T15:23:52;19.20;99.90
30186;DHT22;31152;49.190;8.122;2022-10-24T15:26:31;19.20;99.90
30186;DHT22;31152;49.190;8.122;2022-10-24T15:31:29;19.00;99.90
30186;DHT22;31152;49.190;8.122;2022-10-24T15:33:56;18.90;99.90
30186;DHT22;31152;49.190;8.122;2022-10-24T15:36:28;18.90;99.90
30186;DHT22;31152;49.190;8.122;2022-10-24T15:39:11;18.80;99.90
30186;DHT22;31152;49.190;8.122;2022-10-24T15:41:39;18.70;99.90
30186;DHT22;31152;49.190;8.122;2022-10-24T15:44:17;18.60;99.90
30186;DHT22;31152;49.190;8.122;2022-10-24T15:46:44;18.50;99.90
30186;DHT22;31152;49.190;8.122;2022-10-24T15:49:11;18.50;99.90
30186;DHT22;31152;49.190;8.122;2022-10-24T15:51:40;18.40;99.90
30186;DHT22;31152;49.190;8.122;2022-10-24T15:54:15;18.30;99.90
30186;DHT22;31152;49.190;8.122;2022-10-24T15:56:42;18.30;99.90
30186;DHT22;31152;49.190;8.122;2022-10-24T15:59:12;18.30;99.90
30186;DHT22;31152;49.190;8.122;2022-10-24T16:01:41;18.30;99.90
30186;DHT22;31152;49.190;8.122;2022-10-24T16:04:13;18.30;99.90
30186;DHT22;31152;49.190;8.122;2022-10-24T16:06:40;18.20;99.90
30186;DHT22;31152;49.190;8.122;2022-10-24T16:09:15;18.20;99.90
30186;DHT22;31152;49.190;8.122;2022-10-24T16:11:42;18.20;99.90
30186;DHT22;31152;49.190;8.122;2022-10-24T16:14:13;18.20;99.90
30186;DHT22;31152;49.190;8.122;2022-10-24T16:16:40;18.10;99.90
30186;DHT22;31152;49.190;8.122;2022-10-24T16:19:07;18.10;99.90
30186;DHT22;31152;49.190;8.122;2022-10-24T16:21:35;18.00;99.90
30186;DHT22;31152;49.190;8.122;2022-10-24T16:24:03;18.00;99.90
30186;DHT22;31152;49.190;8.122;2022-10-24T16:26:30;18.00;99.90
30186;DHT22;31152;49.190;8.122;2022-10-24T16:28:59;17.90;99.90
30186;DHT22;31152;49.190;8.122;2022-10-24T16:31:25;17.90;99.90
30186;DHT22;31152;49.190;8.122;2022-10-24T16:33:52;17.90;99.90
30186;DHT22;31152;49.190;8.122;2022-10-24T16:36:19;17.90;99.90
30186;DHT22;31152;49.190;8.122;2022-10-24T16:38:50;17.80;99.90
30186;DHT22;31152;49.190;8.122;2022-10-24T16:41:20;17.80;99.90
30186;DHT22;31152;49.190;8.122;2022-10-24T16:43:48;17.70;99.90
30186;DHT22;31152;49.190;8.122;2022-10-24T16:46:18;17.70;99.90
30186;DHT22;31152;49.190;8.122;2022-10-24T16:48:45;17.70;99.90
30186;DHT22;31152;49.190;8.122;2022-10-24T16:51:18;17.70;99.90
30186;DHT22;31152;49.190;8.122;2022-10-24T16:53:45;17.60;99.90
30186;DHT22;31152;49.190;8.122;2022-10-24T16:56:13;17.60;99.90
30186;DHT22;31152;49.190;8.122;2022-10-24T16:58:41;17.60;99.90
30186;DHT22;31152;49.190;8.122;2022-10-24T17:01:10;17.50;99.90
30186;DHT22;31152;49.190;8.122;2022-10-24T17:03:38;17.50;99.90
30186;DHT22;31152;49.190;8.122;2022-10-24T17:06:05;17.40;99.90
30186;DHT22;31152;49.190;8.122;2022-10-24T17:08:32;17.40;99.90
30186;DHT22;31152;49.190;8.122;2022-10-24T17:10:59;17.40;99.90
30186;DHT22;31152;49.190;8.122;2022-10-24T17:13:27;17.30;99.90
30186;DHT22;31152;49.190;8.122;2022-10-24T17:15:54;17.20;99.90
30186;DHT22;31152;49.190;8.122;2022-10-24T17:18:22;17.20;99.90
30186;DHT22;31152;49.190;8.122;2022-10-24T17:20:50;17.20;99.90
30186;DHT22;31152;49.190;8.122;2022-10-24T17:23:24;17.10;99.90
30186;DHT22;31152;49.190;8.122;2022-10-24T17:25:51;17.10;99.90
30186;DHT22;31152;49.190;8.122;2022-10-24T17:28:18;17.00;99.90
30186;DHT22;31152;49.190;8.122;2022-10-24T17:30:45;17.00;99.90
30186;DHT22;31152;49.190;8.122;2022-10-24T17:33:12;16.90;99.90
30186;DHT22;31152;49.190;8.122;2022-10-24T17:35:45;16.80;99.90
30186;DHT22;31152;49.190;8.122;2022-10-24T17:40:59;16.70;99.90
30186;DHT22;31152;49.190;8.122;2022-10-24T17:43:28;16.60;99.90
30186;DHT22;31152;49.190;8.122;2022-10-24T17:45:56;16.60;99.90
30186;DHT22;31152;49.190;8.122;2022-10-24T17:48:25;16.50;99.90
30186;DHT22;31152;49.190;8.122;2022-10-24T17:50:54;16.50;99.90
30186;DHT22;31152;49.190;8.122;2022-10-24T17:53:21;16.40;99.90
30186;DHT22;31152;49.190;8.122;2022-10-24T17:55:52;16.40;99.90
30186;DHT22;31152;49.190;8.122;2022-10-24T17:58:19;16.40;99.90
30186;DHT22;31152;49.190;8.122;2022-10-24T18:00:50;16.30;99.90
30186;DHT22;31152;49.190;8.122;2022-10-24T18:03:19;16.20;99.90
30186;DHT22;31152;49.190;8.122;2022-10-24T18:05:46;16.20;99.90
30186;DHT22;31152;49.190;8.122;2022-10-24T18:08:16;16.10;99.90